PWSweather.com
Personal Weather Stations
Station Observations
KCAWINNE3
West Valley, Winnetka, CA 91306

West ValleyWinnetka, CA 91306

Lat: 34.199798, Lon: -118.568253

Elevation: 758

Station Type: OS WMR968

Latest ConditionsUpdated 3:28:14 PM PDT Monday, Oct 15, 2018
Currently Today's Max Today's Min Today's Average
Temperature 79.0°F26.1°C 79.2°F26.2°C 52.7°F11.5°C 66.4°F19.1°C
Dew Point 6.1°F-14.4°C 57.1°F13.9°C 2.5°F-16.4°C 26.8°F-2.9°C
Winds 5.1 mph NE8.2 kmh NE 12.6 mph -20.3 kmh - - 4.0 mph 6.4 kmh
Wind Gusts 17.0 mph27.4 kmh 29.0 mph46.7 kmh - -
Humidity 6% 93% 5% 35%
Pressure 30.05 in1017.6 mb 30.13 in1020.3 mb 30.00 in1015.9 mb -
Hour Temp Dew Point Humidity Winds Wind Gusts Pressure Precip Precip Rate Daily Precip Total
03:28 PM 79.0°F26.1°C 6.1°F-14.4°C 6% 5.1 mph NE8.2 kmh NE 17.0 mph27.4 kmh 30.05 in1017.6 mb 0.00 in0.0 mm 0.00 in0.0 mm 0.00 in0.0 mm
03:23 PM 79.1°F26.2°C 2.7°F-16.3°C 5% 7.2 mph NE11.6 kmh NE 17.0 mph27.4 kmh 30.05 in1017.6 mb 0.00 in0.0 mm 0.00 in0.0 mm 0.00 in0.0 mm
03:18 PM 79.1°F26.2°C 6.2°F-14.3°C 6% 6.2 mph NE10.0 kmh NE 17.0 mph27.4 kmh 30.05 in1017.6 mb 0.00 in0.0 mm 0.00 in0.0 mm 0.00 in0.0 mm
03:13 PM 79.2°F26.2°C 6.3°F-14.3°C 6% 4.4 mph NE7.1 kmh NE 16.0 mph25.7 kmh 30.05 in1017.6 mb 0.00 in0.0 mm 0.00 in0.0 mm 0.00 in0.0 mm
03:08 PM 79.1°F26.2°C 6.2°F-14.3°C 6% 9.3 mph ENE15.0 kmh ENE 16.0 mph25.7 kmh 30.05 in1017.6 mb 0.00 in0.0 mm 0.00 in0.0 mm 0.00 in0.0 mm
03:03 PM 78.9°F26.1°C 6.1°F-14.4°C 6% 7.3 mph ENE11.7 kmh ENE 16.0 mph25.7 kmh 30.05 in1017.6 mb 0.00 in0.0 mm 0.00 in0.0 mm 0.00 in0.0 mm
02:58 PM 78.9°F26.1°C 2.5°F-16.4°C 5% 6.2 mph ENE10.0 kmh ENE 16.0 mph25.7 kmh 30.05 in1017.6 mb 0.00 in0.0 mm 0.00 in0.0 mm 0.00 in0.0 mm
02:53 PM 78.7°F25.9°C 5.9°F-14.5°C 6% 7.7 mph NE12.4 kmh NE 16.0 mph25.7 kmh 30.05 in1017.6 mb 0.00 in0.0 mm 0.00 in0.0 mm 0.00 in0.0 mm
02:48 PM 78.5°F25.8°C 5.8°F-14.6°C 6% 7.5 mph ENE12.1 kmh ENE 17.0 mph27.4 kmh 30.05 in1017.6 mb 0.00 in0.0 mm 0.00 in0.0 mm 0.00 in0.0 mm
02:43 PM 78.4°F25.8°C 5.8°F-14.6°C 6% 7.4 mph NE11.9 kmh NE 21.0 mph33.8 kmh 30.06 in1017.9 mb 0.00 in0.0 mm 0.00 in0.0 mm 0.00 in0.0 mm
02:38 PM 78.2°F25.7°C 5.6°F-14.7°C 6% 6.8 mph ENE10.9 kmh ENE 21.0 mph33.8 kmh 30.06 in1017.9 mb 0.00 in0.0 mm 0.00 in0.0 mm 0.00 in0.0 mm
02:29 PM 78.2°F25.7°C 5.6°F-14.7°C 6% 5.8 mph NE9.3 kmh NE 21.0 mph33.8 kmh 30.06 in1017.9 mb 0.00 in0.0 mm 0.00 in0.0 mm 0.00 in0.0 mm
02:28 PM 78.3°F25.7°C 5.6°F-14.7°C 6% 9.7 mph NE15.6 kmh NE 21.0 mph33.8 kmh 30.06 in1017.9 mb 0.00 in0.0 mm 0.00 in0.0 mm 0.00 in0.0 mm
02:23 PM 78.3°F25.7°C 8.8°F-12.9°C 7% 6.7 mph NE10.8 kmh NE 18.0 mph29.0 kmh 30.07 in1018.3 mb 0.00 in0.0 mm 0.00 in0.0 mm 0.00 in0.0 mm
02:18 PM 78.2°F25.7°C 11.7°F-11.3°C 8% 7.2 mph E11.6 kmh E 17.0 mph27.4 kmh 30.06 in1017.9 mb 0.00 in0.0 mm 0.00 in0.0 mm 0.00 in0.0 mm
02:13 PM 78.0°F25.6°C 8.9°F-12.8°C 7% 6.4 mph ENE10.3 kmh ENE 16.0 mph25.7 kmh 30.07 in1018.3 mb 0.00 in0.0 mm 0.00 in0.0 mm 0.00 in0.0 mm
02:08 PM 78.0°F25.6°C 8.9°F-12.8°C 7% 5.7 mph ENE9.2 kmh ENE 16.0 mph25.7 kmh 30.07 in1018.3 mb 0.00 in0.0 mm 0.00 in0.0 mm 0.00 in0.0 mm
02:03 PM 78.1°F25.6°C 8.7°F-12.9°C 7% 4.4 mph NE7.1 kmh NE 16.0 mph25.7 kmh 30.07 in1018.3 mb 0.00 in0.0 mm 0.00 in0.0 mm 0.00 in0.0 mm
01:58 PM 78.0°F25.6°C 8.6°F-13.0°C 7% 5.3 mph N8.5 kmh N 13.0 mph20.9 kmh 30.08 in1018.6 mb 0.00 in0.0 mm 0.00 in0.0 mm 0.00 in0.0 mm
01:52 PM 77.7°F25.4°C 11.3°F-11.5°C 8% 6.4 mph E10.3 kmh E 15.0 mph24.1 kmh 30.08 in1018.6 mb 0.00 in0.0 mm 0.00 in0.0 mm 0.00 in0.0 mm
01:47 PM 77.3°F25.2°C 11.0°F-11.7°C 8% 3.3 mph ENE5.3 kmh ENE 15.0 mph24.1 kmh 30.08 in1018.6 mb 0.00 in0.0 mm 0.00 in0.0 mm 0.00 in0.0 mm
01:42 PM 77.1°F25.1°C 10.9°F-11.7°C 8% 5.3 mph NNE8.5 kmh NNE 19.0 mph30.6 kmh 30.08 in1018.6 mb 0.00 in0.0 mm 0.00 in0.0 mm 0.00 in0.0 mm
01:37 PM 76.8°F24.9°C 10.7°F-11.8°C 8% 6.9 mph NE11.1 kmh NE 20.0 mph32.2 kmh 30.09 in1019.0 mb 0.00 in0.0 mm 0.00 in0.0 mm 0.00 in0.0 mm
01:32 PM 76.2°F24.6°C 10.2°F-12.1°C 8% 4.7 mph E7.6 kmh E 20.0 mph32.2 kmh 30.09 in1019.0 mb 0.00 in0.0 mm 0.00 in0.0 mm 0.00 in0.0 mm
01:27 PM 76.2°F24.6°C 7.3°F-13.7°C 7% 10.7 mph NE17.2 kmh NE 20.0 mph32.2 kmh 30.09 in1019.0 mb 0.00 in0.0 mm 0.00 in0.0 mm 0.00 in0.0 mm
01:21 PM 76.2°F24.6°C 10.2°F-12.1°C 8% 11.8 mph ENE19.0 kmh ENE 20.0 mph32.2 kmh 30.10 in1019.3 mb 0.00 in0.0 mm 0.00 in0.0 mm 0.00 in0.0 mm
01:17 PM 76.0°F24.4°C 13.0°F-10.6°C 9% 6.8 mph NNE10.9 kmh NNE 18.0 mph29.0 kmh 30.10 in1019.3 mb 0.00 in0.0 mm 0.00 in0.0 mm 0.00 in0.0 mm
01:12 PM 75.7°F24.3°C 9.8°F-12.3°C 8% 9.9 mph NE15.9 kmh NE 18.0 mph29.0 kmh 30.11 in1019.6 mb 0.00 in0.0 mm 0.00 in0.0 mm 0.00 in0.0 mm
01:07 PM 75.5°F24.2°C 12.7°F-10.7°C 9% 7.9 mph ENE12.7 kmh ENE 23.0 mph37.0 kmh 30.11 in1019.6 mb 0.00 in0.0 mm 0.00 in0.0 mm 0.00 in0.0 mm
01:02 PM 75.5°F24.2°C 12.4°F-10.9°C 9% 5.7 mph NE9.2 kmh NE 23.0 mph37.0 kmh 30.11 in1019.6 mb 0.00 in0.0 mm 0.00 in0.0 mm 0.00 in0.0 mm
12:57 PM 75.3°F24.1°C 12.2°F-11.0°C 9% 4.1 mph NNE6.6 kmh NNE 24.0 mph38.6 kmh 30.12 in1020.0 mb 0.00 in0.0 mm 0.00 in0.0 mm 0.00 in0.0 mm
12:52 PM 75.1°F23.9°C 12.1°F-11.1°C 9% 3.0 mph NE4.8 kmh NE 24.0 mph38.6 kmh 30.12 in1020.0 mb 0.00 in0.0 mm 0.00 in0.0 mm 0.00 in0.0 mm
12:47 PM 74.8°F23.8°C 11.8°F-11.2°C 9% 4.9 mph NE7.9 kmh NE 15.0 mph24.1 kmh 30.12 in1020.0 mb 0.00 in0.0 mm 0.00 in0.0 mm 0.00 in0.0 mm
12:42 PM 74.6°F23.7°C 11.7°F-11.3°C 9% 6.7 mph E10.8 kmh E 17.0 mph27.4 kmh 30.12 in1020.0 mb 0.00 in0.0 mm 0.00 in0.0 mm 0.00 in0.0 mm
12:37 PM 74.2°F23.4°C 13.8°F-10.1°C 10% 7.1 mph NE11.4 kmh NE 17.0 mph27.4 kmh 30.12 in1020.0 mb 0.00 in0.0 mm 0.00 in0.0 mm 0.00 in0.0 mm
12:32 PM 74.1°F23.4°C 13.7°F-10.2°C 10% 5.7 mph NE9.2 kmh NE 21.0 mph33.8 kmh 30.12 in1020.0 mb 0.00 in0.0 mm 0.00 in0.0 mm 0.00 in0.0 mm
12:27 PM 73.7°F23.2°C 11.0°F-11.7°C 9% 4.6 mph NE7.4 kmh NE 24.0 mph38.6 kmh 30.12 in1020.0 mb 0.00 in0.0 mm 0.00 in0.0 mm 0.00 in0.0 mm
12:22 PM 73.4°F23.0°C 13.2°F-10.4°C 10% 7.9 mph NE12.7 kmh NE 24.0 mph38.6 kmh 30.12 in1020.0 mb 0.00 in0.0 mm 0.00 in0.0 mm 0.00 in0.0 mm
12:17 PM 73.3°F22.9°C 13.1°F-10.5°C 10% 7.9 mph NE12.7 kmh NE 24.0 mph38.6 kmh 30.12 in1020.0 mb 0.00 in0.0 mm 0.00 in0.0 mm 0.00 in0.0 mm
12:12 PM 73.2°F22.9°C 13.0°F-10.6°C 10% 9.6 mph NE15.4 kmh NE 24.0 mph38.6 kmh 30.11 in1019.6 mb 0.00 in0.0 mm 0.00 in0.0 mm 0.00 in0.0 mm
12:07 PM 73.2°F22.9°C 13.0°F-10.6°C 10% 8.6 mph NE13.8 kmh NE 24.0 mph38.6 kmh 30.11 in1019.6 mb 0.00 in0.0 mm 0.00 in0.0 mm 0.00 in0.0 mm
12:02 PM 73.2°F22.9°C 13.0°F-10.6°C 10% 12.6 mph NE20.3 kmh NE 25.0 mph40.2 kmh 30.11 in1019.6 mb 0.00 in0.0 mm 0.00 in0.0 mm 0.00 in0.0 mm
11:57 AM 73.2°F22.9°C 10.9°F-11.7°C 9% 9.0 mph NE14.5 kmh NE 25.0 mph40.2 kmh 30.11 in1019.6 mb 0.00 in0.0 mm 0.00 in0.0 mm 0.00 in0.0 mm
11:52 AM 73.4°F23.0°C 11.1°F-11.6°C 9% 8.4 mph NE13.5 kmh NE 22.0 mph35.4 kmh 30.12 in1020.0 mb 0.00 in0.0 mm 0.00 in0.0 mm 0.00 in0.0 mm
11:47 AM 73.1°F22.8°C 13.2°F-10.4°C 10% 5.5 mph NE8.9 kmh NE 22.0 mph35.4 kmh 30.12 in1020.0 mb 0.00 in0.0 mm 0.00 in0.0 mm 0.00 in0.0 mm
11:42 AM 72.8°F22.7°C 12.7°F-10.7°C 10% 6.7 mph NNE10.8 kmh NNE 22.0 mph35.4 kmh 30.12 in1020.0 mb 0.00 in0.0 mm 0.00 in0.0 mm 0.00 in0.0 mm
11:37 AM 72.8°F22.7°C 12.7°F-10.7°C 10% 8.4 mph NE13.5 kmh NE 22.0 mph35.4 kmh 30.12 in1020.0 mb 0.00 in0.0 mm 0.00 in0.0 mm 0.00 in0.0 mm
11:32 AM 72.7°F22.6°C 14.9°F-9.5°C 11% 6.4 mph NE10.3 kmh NE 24.0 mph38.6 kmh 30.12 in1020.0 mb 0.00 in0.0 mm 0.00 in0.0 mm 0.00 in0.0 mm
11:27 AM 72.5°F22.5°C 12.5°F-10.8°C 10% 6.9 mph NNE11.1 kmh NNE 29.0 mph46.7 kmh 30.12 in1020.0 mb 0.00 in0.0 mm 0.00 in0.0 mm 0.00 in0.0 mm
11:22 AM 72.6°F22.6°C 12.6°F-10.8°C 10% 11.2 mph NE18.0 kmh NE 29.0 mph46.7 kmh 30.12 in1020.0 mb 0.00 in0.0 mm 0.00 in0.0 mm 0.00 in0.0 mm
11:17 AM 72.4°F22.4°C 12.4°F-10.9°C 10% 9.3 mph NE15.0 kmh NE 29.0 mph46.7 kmh 30.12 in1020.0 mb 0.00 in0.0 mm 0.00 in0.0 mm 0.00 in0.0 mm
11:12 AM 72.4°F22.4°C 12.4°F-10.9°C 10% 12.6 mph NE20.3 kmh NE 29.0 mph46.7 kmh 30.12 in1020.0 mb 0.00 in0.0 mm 0.00 in0.0 mm 0.00 in0.0 mm
11:07 AM 72.2°F22.3°C 12.3°F-10.9°C 10% 10.0 mph NE16.1 kmh NE 24.0 mph38.6 kmh 30.11 in1019.6 mb 0.00 in0.0 mm 0.00 in0.0 mm 0.00 in0.0 mm
11:02 AM 71.9°F22.2°C 12.1°F-11.1°C 10% 9.4 mph NE15.1 kmh NE 23.0 mph37.0 kmh 30.11 in1019.6 mb 0.00 in0.0 mm 0.00 in0.0 mm 0.00 in0.0 mm
10:57 AM 71.6°F22.0°C 14.0°F-10.0°C 11% 6.1 mph NNE9.8 kmh NNE 23.0 mph37.0 kmh 30.11 in1019.6 mb 0.00 in0.0 mm 0.00 in0.0 mm 0.00 in0.0 mm
10:52 AM 71.5°F21.9°C 11.8°F-11.2°C 10% 11.5 mph NE18.5 kmh NE 23.0 mph37.0 kmh 30.10 in1019.3 mb 0.00 in0.0 mm 0.00 in0.0 mm 0.00 in0.0 mm
10:47 AM 71.5°F21.9°C 14.0°F-10.0°C 11% 9.9 mph NNE15.9 kmh NNE 21.0 mph33.8 kmh 30.10 in1019.3 mb 0.00 in0.0 mm 0.00 in0.0 mm 0.00 in0.0 mm
10:42 AM 71.3°F21.8°C 13.8°F-10.1°C 11% 7.1 mph NNE11.4 kmh NNE 21.0 mph33.8 kmh 30.10 in1019.3 mb 0.00 in0.0 mm 0.00 in0.0 mm 0.00 in0.0 mm
10:37 AM 71.3°F21.8°C 13.8°F-10.1°C 11% 8.3 mph NNE13.4 kmh NNE 21.0 mph33.8 kmh 30.10 in1019.3 mb 0.00 in0.0 mm 0.00 in0.0 mm 0.00 in0.0 mm
10:32 AM 71.3°F21.8°C 13.8°F-10.1°C 11% 5.7 mph NE9.2 kmh NE 21.0 mph33.8 kmh 30.10 in1019.3 mb 0.00 in0.0 mm 0.00 in0.0 mm 0.00 in0.0 mm
10:27 AM 71.4°F21.9°C 13.9°F-10.1°C 11% 8.3 mph NNE13.4 kmh NNE 21.0 mph33.8 kmh 30.11 in1019.6 mb 0.00 in0.0 mm 0.00 in0.0 mm 0.00 in0.0 mm
10:22 AM 71.2°F21.8°C 13.7°F-10.2°C 11% 5.2 mph NE8.4 kmh NE 21.0 mph33.8 kmh 30.11 in1019.6 mb 0.00 in0.0 mm 0.00 in0.0 mm 0.00 in0.0 mm
10:17 AM 71.2°F21.8°C 13.7°F-10.2°C 11% 8.5 mph NE13.7 kmh NE 22.0 mph35.4 kmh 30.11 in1019.6 mb 0.00 in0.0 mm 0.00 in0.0 mm 0.00 in0.0 mm
10:12 AM 70.9°F21.6°C 15.5°F-9.2°C 12% 7.8 mph NE12.6 kmh NE 22.0 mph35.4 kmh 30.11 in1019.6 mb 0.00 in0.0 mm 0.00 in0.0 mm 0.00 in0.0 mm
10:07 AM 70.9°F21.6°C 13.5°F-10.3°C 11% 8.5 mph NE13.7 kmh NE 22.0 mph35.4 kmh 30.11 in1019.6 mb 0.00 in0.0 mm 0.00 in0.0 mm 0.00 in0.0 mm
10:02 AM 70.9°F21.6°C 15.5°F-9.2°C 12% 8.4 mph NE13.5 kmh NE 22.0 mph35.4 kmh 30.11 in1019.6 mb 0.00 in0.0 mm 0.00 in0.0 mm 0.00 in0.0 mm
09:57 AM 70.7°F21.5°C 17.3°F-8.2°C 13% 8.8 mph N14.2 kmh N 22.0 mph35.4 kmh 30.11 in1019.6 mb 0.00 in0.0 mm 0.00 in0.0 mm 0.00 in0.0 mm
09:52 AM 70.7°F21.5°C 15.4°F-9.2°C 12% 8.8 mph NE14.2 kmh NE 16.0 mph25.7 kmh 30.11 in1019.6 mb 0.00 in0.0 mm 0.00 in0.0 mm 0.00 in0.0 mm
09:47 AM 70.7°F21.5°C 17.3°F-8.2°C 13% 3.4 mph ENE5.5 kmh ENE 16.0 mph25.7 kmh 30.11 in1019.6 mb 0.00 in0.0 mm 0.00 in0.0 mm 0.00 in0.0 mm
09:39 AM 71.0°F21.7°C 15.6°F-9.1°C 12% 7.2 mph NE11.6 kmh NE 16.0 mph25.7 kmh 30.12 in1020.0 mb 0.00 in0.0 mm 0.00 in0.0 mm 0.00 in0.0 mm
09:37 AM 71.0°F21.7°C 15.6°F-9.1°C 12% 6.7 mph NE10.8 kmh NE 16.0 mph25.7 kmh 30.12 in1020.0 mb 0.00 in0.0 mm 0.00 in0.0 mm 0.00 in0.0 mm
09:32 AM 71.0°F21.7°C 17.6°F-8.0°C 13% 6.5 mph ENE10.5 kmh ENE 10.0 mph16.1 kmh 30.13 in1020.3 mb 0.00 in0.0 mm 0.00 in0.0 mm 0.00 in0.0 mm
09:26 AM 70.8°F21.6°C 17.4°F-8.1°C 13% 2.9 mph NE4.7 kmh NE 10.0 mph16.1 kmh 30.13 in1020.3 mb 0.00 in0.0 mm 0.00 in0.0 mm 0.00 in0.0 mm
09:22 AM 70.7°F21.5°C 17.3°F-8.2°C 13% 4.0 mph NW6.4 kmh NW 12.0 mph19.3 kmh 30.12 in1020.0 mb 0.00 in0.0 mm 0.00 in0.0 mm 0.00 in0.0 mm
09:17 AM 70.3°F21.3°C 18.7°F-7.4°C 14% 1.3 mph ENE2.1 kmh ENE 12.0 mph19.3 kmh 30.12 in1020.0 mb 0.00 in0.0 mm 0.00 in0.0 mm 0.00 in0.0 mm
09:12 AM 70.1°F21.2°C 18.6°F-7.4°C 14% 3.6 mph NE5.8 kmh NE 16.0 mph25.7 kmh 30.13 in1020.3 mb 0.00 in0.0 mm 0.00 in0.0 mm 0.00 in0.0 mm
09:07 AM 69.7°F20.9°C 14.6°F-9.7°C 12% 4.5 mph NE7.2 kmh NE 16.0 mph25.7 kmh 30.13 in1020.3 mb 0.00 in0.0 mm 0.00 in0.0 mm 0.00 in0.0 mm
09:01 AM 69.1°F20.6°C 22.4°F-5.3°C 17% 1.0 mph WSW1.6 kmh WSW 16.0 mph25.7 kmh 30.12 in1020.0 mb 0.00 in0.0 mm 0.00 in0.0 mm 0.00 in0.0 mm
08:57 AM 68.9°F20.5°C 17.6°F-8.0°C 14% 8.7 mph N14.0 kmh N 16.0 mph25.7 kmh 30.13 in1020.3 mb 0.00 in0.0 mm 0.00 in0.0 mm 0.00 in0.0 mm
08:52 AM 68.5°F20.3°C 18.9°F-7.3°C 15% 2.8 mph N4.5 kmh N 10.0 mph16.1 kmh 30.13 in1020.3 mb 0.00 in0.0 mm 0.00 in0.0 mm 0.00 in0.0 mm
08:47 AM 68.0°F20.0°C 18.5°F-7.5°C 15% 2.3 mph ESE3.7 kmh ESE 11.0 mph17.7 kmh 30.13 in1020.3 mb 0.00 in0.0 mm 0.00 in0.0 mm 0.00 in0.0 mm
08:41 AM 67.2°F19.6°C 17.9°F-7.8°C 15% 2.9 mph NNW4.7 kmh NNW 16.0 mph25.7 kmh 30.13 in1020.3 mb 0.00 in0.0 mm 0.00 in0.0 mm 0.00 in0.0 mm
08:37 AM 66.9°F19.4°C 19.2°F-7.1°C 16% 3.0 mph NE4.8 kmh NE 16.0 mph25.7 kmh 30.12 in1020.0 mb 0.00 in0.0 mm 0.00 in0.0 mm 0.00 in0.0 mm
08:32 AM 66.5°F19.2°C 20.3°F-6.5°C 17% 1.0 mph N1.6 kmh N 16.0 mph25.7 kmh 30.12 in1020.0 mb 0.00 in0.0 mm 0.00 in0.0 mm 0.00 in0.0 mm
08:27 AM 66.2°F19.0°C 18.6°F-7.4°C 16% 2.6 mph N4.2 kmh N 16.0 mph25.7 kmh 30.12 in1020.0 mb 0.00 in0.0 mm 0.00 in0.0 mm 0.00 in0.0 mm
08:22 AM 66.0°F18.9°C 18.4°F-7.6°C 16% 6.0 mph NE9.7 kmh NE 15.0 mph24.1 kmh 30.12 in1020.0 mb 0.00 in0.0 mm 0.00 in0.0 mm 0.00 in0.0 mm
08:17 AM 66.0°F18.9°C 18.4°F-7.6°C 16% 3.3 mph NE5.3 kmh NE 13.0 mph20.9 kmh 30.12 in1020.0 mb 0.00 in0.0 mm 0.00 in0.0 mm 0.00 in0.0 mm
08:12 AM 66.0°F18.9°C 18.4°F-7.6°C 16% 4.1 mph NNE6.6 kmh NNE 13.0 mph20.9 kmh 30.12 in1020.0 mb 0.00 in0.0 mm 0.00 in0.0 mm 0.00 in0.0 mm
08:07 AM 66.1°F18.9°C 18.5°F-7.5°C 16% 2.6 mph N4.2 kmh N 14.0 mph22.5 kmh 30.12 in1020.0 mb 0.00 in0.0 mm 0.00 in0.0 mm 0.00 in0.0 mm
08:02 AM 66.2°F19.0°C 18.6°F-7.4°C 16% 3.4 mph N5.5 kmh N 17.0 mph27.4 kmh 30.12 in1020.0 mb 0.00 in0.0 mm 0.00 in0.0 mm 0.00 in0.0 mm
07:57 AM 66.2°F19.0°C 20.0°F-6.7°C 17% 4.7 mph NNW7.6 kmh NNW 17.0 mph27.4 kmh 30.12 in1020.0 mb 0.00 in0.0 mm 0.00 in0.0 mm 0.00 in0.0 mm
07:52 AM 66.1°F18.9°C 18.5°F-7.5°C 16% 3.2 mph N5.1 kmh N 17.0 mph27.4 kmh 30.11 in1019.6 mb 0.00 in0.0 mm 0.00 in0.0 mm 0.00 in0.0 mm
07:47 AM 65.8°F18.8°C 18.3°F-7.6°C 16% 7.1 mph NNE11.4 kmh NNE 18.0 mph29.0 kmh 30.11 in1019.6 mb 0.00 in0.0 mm 0.00 in0.0 mm 0.00 in0.0 mm
07:42 AM 65.4°F18.6°C 19.4°F-7.0°C 17% 2.4 mph N3.9 kmh N 18.0 mph29.0 kmh 30.11 in1019.6 mb 0.00 in0.0 mm 0.00 in0.0 mm 0.00 in0.0 mm
07:37 AM 65.0°F18.3°C 19.1°F-7.2°C 17% 6.0 mph NNE9.7 kmh NNE 18.0 mph29.0 kmh 30.10 in1019.3 mb 0.00 in0.0 mm 0.00 in0.0 mm 0.00 in0.0 mm
07:32 AM 64.9°F18.3°C 19.0°F-7.2°C 17% 4.1 mph NE6.6 kmh NE 18.0 mph29.0 kmh 30.10 in1019.3 mb 0.00 in0.0 mm 0.00 in0.0 mm 0.00 in0.0 mm
07:27 AM 64.8°F18.2°C 18.9°F-7.3°C 17% 4.7 mph NE7.6 kmh NE 14.0 mph22.5 kmh 30.09 in1019.0 mb 0.00 in0.0 mm 0.00 in0.0 mm 0.00 in0.0 mm
07:22 AM 64.9°F18.3°C 19.0°F-7.2°C 17% 4.0 mph NNE6.4 kmh NNE 14.0 mph22.5 kmh 30.09 in1019.0 mb 0.00 in0.0 mm 0.00 in0.0 mm 0.00 in0.0 mm
07:16 AM 64.8°F18.2°C 20.2°F-6.6°C 18% 4.4 mph NNE7.1 kmh NNE 11.0 mph17.7 kmh 30.09 in1019.0 mb 0.00 in0.0 mm 0.00 in0.0 mm 0.00 in0.0 mm
07:11 AM 64.8°F18.2°C 20.2°F-6.6°C 18% 2.9 mph NNE4.7 kmh NNE 10.0 mph16.1 kmh 30.09 in1019.0 mb 0.00 in0.0 mm 0.00 in0.0 mm 0.00 in0.0 mm
07:06 AM 64.9°F18.3°C 19.0°F-7.2°C 17% 4.2 mph NNE6.8 kmh NNE 10.0 mph16.1 kmh 30.09 in1019.0 mb 0.00 in0.0 mm 0.00 in0.0 mm 0.00 in0.0 mm
07:01 AM 65.0°F18.3°C 20.4°F-6.4°C 18% 3.1 mph NE5.0 kmh NE 11.0 mph17.7 kmh 30.10 in1019.3 mb 0.00 in0.0 mm 0.00 in0.0 mm 0.00 in0.0 mm
06:56 AM 65.3°F18.5°C 20.6°F-6.3°C 18% 2.4 mph ENE3.9 kmh ENE 11.0 mph17.7 kmh 30.09 in1019.0 mb 0.00 in0.0 mm 0.00 in0.0 mm 0.00 in0.0 mm
06:51 AM 65.4°F18.6°C 19.4°F-7.0°C 17% 2.3 mph NNE3.7 kmh NNE 11.0 mph17.7 kmh 30.09 in1019.0 mb 0.00 in0.0 mm 0.00 in0.0 mm 0.00 in0.0 mm
06:46 AM 65.4°F18.6°C 20.7°F-6.3°C 18% 3.3 mph NE5.3 kmh NE 12.0 mph19.3 kmh 30.09 in1019.0 mb 0.00 in0.0 mm 0.00 in0.0 mm 0.00 in0.0 mm
06:41 AM 65.4°F18.6°C 20.7°F-6.3°C 18% 1.6 mph NE2.6 kmh NE 12.0 mph19.3 kmh 30.08 in1018.6 mb 0.00 in0.0 mm 0.00 in0.0 mm 0.00 in0.0 mm
06:36 AM 65.5°F18.6°C 20.8°F-6.2°C 18% 2.5 mph NE4.0 kmh NE 12.0 mph19.3 kmh 30.08 in1018.6 mb 0.00 in0.0 mm 0.00 in0.0 mm 0.00 in0.0 mm
06:31 AM 65.5°F18.6°C 20.8°F-6.2°C 18% 3.6 mph NE5.8 kmh NE 14.0 mph22.5 kmh 30.08 in1018.6 mb 0.00 in0.0 mm 0.00 in0.0 mm 0.00 in0.0 mm
06:26 AM 65.4°F18.6°C 20.7°F-6.3°C 18% 3.8 mph NE6.1 kmh NE 14.0 mph22.5 kmh 30.08 in1018.6 mb 0.00 in0.0 mm 0.00 in0.0 mm 0.00 in0.0 mm
06:21 AM 65.4°F18.6°C 22.0°F-5.6°C 19% 1.7 mph N2.7 kmh N 14.0 mph22.5 kmh 30.08 in1018.6 mb 0.00 in0.0 mm 0.00 in0.0 mm 0.00 in0.0 mm
06:16 AM 65.3°F18.5°C 23.2°F-4.9°C 20% 6.4 mph NNE10.3 kmh NNE 14.0 mph22.5 kmh 30.08 in1018.6 mb 0.00 in0.0 mm 0.00 in0.0 mm 0.00 in0.0 mm
06:11 AM 65.3°F18.5°C 23.1°F-4.9°C 20% 2.3 mph NNE3.7 kmh NNE 13.0 mph20.9 kmh 30.07 in1018.3 mb 0.00 in0.0 mm 0.00 in0.0 mm 0.00 in0.0 mm
06:06 AM 65.4°F18.6°C 23.2°F-4.9°C 20% 3.1 mph NNE5.0 kmh NNE 13.0 mph20.9 kmh 30.07 in1018.3 mb 0.00 in0.0 mm 0.00 in0.0 mm 0.00 in0.0 mm
06:01 AM 65.5°F18.6°C 23.3°F-4.8°C 20% 4.8 mph NE7.7 kmh NE 13.0 mph20.9 kmh 30.07 in1018.3 mb 0.00 in0.0 mm 0.00 in0.0 mm 0.00 in0.0 mm
05:56 AM 65.7°F18.7°C 23.5°F-4.7°C 20% 1.8 mph NE2.9 kmh NE 10.0 mph16.1 kmh 30.07 in1018.3 mb 0.00 in0.0 mm 0.00 in0.0 mm 0.00 in0.0 mm
05:50 AM 65.8°F18.8°C 23.5°F-4.7°C 20% 4.1 mph NNE6.6 kmh NNE 12.0 mph19.3 kmh 30.06 in1017.9 mb 0.00 in0.0 mm 0.00 in0.0 mm 0.00 in0.0 mm
05:46 AM 65.7°F18.7°C 23.5°F-4.7°C 20% 4.3 mph NE6.9 kmh NE 12.0 mph19.3 kmh 30.06 in1017.9 mb 0.00 in0.0 mm 0.00 in0.0 mm 0.00 in0.0 mm
05:41 AM 65.6°F18.7°C 23.4°F-4.8°C 20% 3.2 mph ENE5.1 kmh ENE 12.0 mph19.3 kmh 30.06 in1017.9 mb 0.00 in0.0 mm 0.00 in0.0 mm 0.00 in0.0 mm
05:36 AM 65.4°F18.6°C 24.4°F-4.2°C 21% 3.0 mph NNE4.8 kmh NNE 12.0 mph19.3 kmh 30.06 in1017.9 mb 0.00 in0.0 mm 0.00 in0.0 mm 0.00 in0.0 mm
05:31 AM 65.2°F18.4°C 24.2°F-4.3°C 21% 2.9 mph NE4.7 kmh NE 12.0 mph19.3 kmh 30.05 in1017.6 mb 0.00 in0.0 mm 0.00 in0.0 mm 0.00 in0.0 mm
05:26 AM 64.9°F18.3°C 25.1°F-3.8°C 22% 4.1 mph NNE6.6 kmh NNE 12.0 mph19.3 kmh 30.05 in1017.6 mb 0.00 in0.0 mm 0.00 in0.0 mm 0.00 in0.0 mm
05:21 AM 64.6°F18.1°C 25.8°F-3.4°C 23% 4.8 mph NE7.7 kmh NE 12.0 mph19.3 kmh 30.05 in1017.6 mb 0.00 in0.0 mm 0.00 in0.0 mm 0.00 in0.0 mm
05:16 AM 64.0°F17.8°C 25.3°F-3.7°C 23% 4.6 mph NNE7.4 kmh NNE 12.0 mph19.3 kmh 30.05 in1017.6 mb 0.00 in0.0 mm 0.00 in0.0 mm 0.00 in0.0 mm
05:11 AM 63.0°F17.2°C 25.5°F-3.6°C 24% 5.9 mph NNE9.5 kmh NNE 12.0 mph19.3 kmh 30.05 in1017.6 mb 0.00 in0.0 mm 0.00 in0.0 mm 0.00 in0.0 mm
05:06 AM 62.0°F16.7°C 26.5°F-3.1°C 26% 4.2 mph N6.8 kmh N 12.0 mph19.3 kmh 30.05 in1017.6 mb 0.00 in0.0 mm 0.00 in0.0 mm 0.00 in0.0 mm
05:01 AM 60.3°F15.7°C 26.9°F-2.8°C 28% 4.1 mph NE6.6 kmh NE 8.0 mph12.9 kmh 30.05 in1017.6 mb 0.00 in0.0 mm 0.00 in0.0 mm 0.00 in0.0 mm
04:56 AM 58.9°F14.9°C 28.9°F-1.7°C 32% 3.0 mph NNE4.8 kmh NNE 6.0 mph9.7 kmh 30.05 in1017.6 mb 0.00 in0.0 mm 0.00 in0.0 mm 0.00 in0.0 mm
04:51 AM 57.6°F14.2°C 29.9°F-1.2°C 35% 2.2 mph NNE3.5 kmh NNE 6.0 mph9.7 kmh 30.04 in1017.3 mb 0.00 in0.0 mm 0.00 in0.0 mm 0.00 in0.0 mm
04:46 AM 56.3°F13.5°C 33.4°F0.8°C 42% 2.3 mph NE3.7 kmh NE 6.0 mph9.7 kmh 30.04 in1017.3 mb 0.00 in0.0 mm 0.00 in0.0 mm 0.00 in0.0 mm
04:41 AM 55.5°F13.1°C 35.6°F2.0°C 47% Calm Calm 5.0 mph8.0 kmh 30.03 in1016.9 mb 0.00 in0.0 mm 0.00 in0.0 mm 0.00 in0.0 mm
04:36 AM 54.8°F12.7°C 34.4°F1.3°C 46% 3.3 mph N5.3 kmh N 5.0 mph8.0 kmh 30.03 in1016.9 mb 0.00 in0.0 mm 0.00 in0.0 mm 0.00 in0.0 mm
04:31 AM 54.1°F12.3°C 36.9°F2.7°C 52% 1.6 mph N2.6 kmh N 3.0 mph4.8 kmh 30.03 in1016.9 mb 0.00 in0.0 mm 0.00 in0.0 mm 0.00 in0.0 mm
04:26 AM 53.5°F11.9°C 39.5°F4.2°C 59% 1.0 mph N1.6 kmh N 1.0 mph1.6 kmh 30.03 in1016.9 mb 0.00 in0.0 mm 0.00 in0.0 mm 0.00 in0.0 mm
04:21 AM 53.0°F11.7°C 39.5°F4.2°C 60% 1.0 mph N1.6 kmh N 1.0 mph1.6 kmh 30.03 in1016.9 mb 0.00 in0.0 mm 0.00 in0.0 mm 0.00 in0.0 mm
04:16 AM 52.8°F11.6°C 42.6°F5.9°C 68% Calm Calm -- 30.02 in1016.6 mb 0.00 in0.0 mm 0.00 in0.0 mm 0.00 in0.0 mm
04:11 AM 52.7°F11.5°C 44.4°F6.9°C 73% Calm Calm -- 30.03 in1016.9 mb 0.00 in0.0 mm 0.00 in0.0 mm 0.00 in0.0 mm
04:06 AM 52.7°F11.5°C 44.0°F6.7°C 72% Calm Calm -- 30.02 in1016.6 mb 0.00 in0.0 mm 0.00 in0.0 mm 0.00 in0.0 mm
04:01 AM 52.8°F11.6°C 45.9°F7.7°C 77% Calm Calm 6.0 mph9.7 kmh 30.02 in1016.6 mb 0.00 in0.0 mm 0.00 in0.0 mm 0.00 in0.0 mm
03:56 AM 52.8°F11.6°C 46.2°F7.9°C 78% Calm Calm 6.0 mph9.7 kmh 30.02 in1016.6 mb 0.00 in0.0 mm 0.00 in0.0 mm 0.00 in0.0 mm
03:51 AM 53.0°F11.7°C 47.4°F8.6°C 81% Calm Calm 6.0 mph9.7 kmh 30.02 in1016.6 mb 0.00 in0.0 mm 0.00 in0.0 mm 0.00 in0.0 mm
03:46 AM 53.2°F11.8°C 47.2°F8.4°C 80% Calm Calm 6.0 mph9.7 kmh 30.02 in1016.6 mb 0.00 in0.0 mm 0.00 in0.0 mm 0.00 in0.0 mm
03:41 AM 53.7°F12.1°C 50.2°F10.1°C 88% 1.0 mph WSW1.6 kmh WSW 1.0 mph1.6 kmh 30.02 in1016.6 mb 0.00 in0.0 mm 0.00 in0.0 mm 0.00 in0.0 mm
03:36 AM 54.2°F12.3°C 51.6°F10.9°C 91% Calm Calm -- 30.02 in1016.6 mb 0.00 in0.0 mm 0.00 in0.0 mm 0.00 in0.0 mm
03:31 AM 54.5°F12.5°C 52.2°F11.2°C 92% Calm Calm -- 30.02 in1016.6 mb 0.00 in0.0 mm 0.00 in0.0 mm 0.00 in0.0 mm
03:26 AM 54.8°F12.7°C 52.5°F11.4°C 92% Calm Calm -- 30.02 in1016.6 mb 0.00 in0.0 mm 0.00 in0.0 mm 0.00 in0.0 mm
03:21 AM 55.0°F12.8°C 53.0°F11.7°C 93% Calm Calm -- 30.02 in1016.6 mb 0.00 in0.0 mm 0.00 in0.0 mm 0.00 in0.0 mm
03:16 AM 55.3°F12.9°C 53.3°F11.8°C 93% Calm Calm -- 30.02 in1016.6 mb 0.00 in0.0 mm 0.00 in0.0 mm 0.00 in0.0 mm
03:11 AM 55.4°F13.0°C 53.4°F11.9°C 93% Calm Calm -- 30.02 in1016.6 mb 0.00 in0.0 mm 0.00 in0.0 mm 0.00 in0.0 mm
03:06 AM 55.6°F13.1°C 53.6°F12.0°C 93% Calm Calm -- 30.02 in1016.6 mb 0.00 in0.0 mm 0.00 in0.0 mm 0.00 in0.0 mm
03:01 AM 55.8°F13.2°C 53.8°F12.1°C 93% Calm Calm -- 30.02 in1016.6 mb 0.00 in0.0 mm 0.00 in0.0 mm 0.00 in0.0 mm
02:56 AM 56.0°F13.3°C 54.0°F12.2°C 93% Calm Calm -- 30.02 in1016.6 mb 0.00 in0.0 mm 0.00 in0.0 mm 0.00 in0.0 mm
02:51 AM 56.1°F13.4°C 54.1°F12.3°C 93% Calm Calm -- 30.02 in1016.6 mb 0.00 in0.0 mm 0.00 in0.0 mm 0.00 in0.0 mm
02:46 AM 56.3°F13.5°C 54.0°F12.2°C 92% Calm Calm -- 30.02 in1016.6 mb 0.00 in0.0 mm 0.00 in0.0 mm 0.00 in0.0 mm
02:41 AM 56.5°F13.6°C 54.5°F12.5°C 93% Calm Calm -- 30.02 in1016.6 mb 0.00 in0.0 mm 0.00 in0.0 mm 0.00 in0.0 mm
02:36 AM 56.6°F13.7°C 54.3°F12.4°C 92% Calm Calm -- 30.02 in1016.6 mb 0.00 in0.0 mm 0.00 in0.0 mm 0.00 in0.0 mm
02:31 AM 56.8°F13.8°C 54.5°F12.5°C 92% Calm Calm -- 30.02 in1016.6 mb 0.00 in0.0 mm 0.00 in0.0 mm 0.00 in0.0 mm
02:26 AM 57.0°F13.9°C 54.7°F12.6°C 92% Calm Calm -- 30.02 in1016.6 mb 0.00 in0.0 mm 0.00 in0.0 mm 0.00 in0.0 mm
02:21 AM 57.2°F14.0°C 55.2°F12.9°C 93% Calm Calm -- 30.02 in1016.6 mb 0.00 in0.0 mm 0.00 in0.0 mm 0.00 in0.0 mm
02:16 AM 57.4°F14.1°C 55.4°F13.0°C 93% Calm Calm -- 30.02 in1016.6 mb 0.00 in0.0 mm 0.00 in0.0 mm 0.00 in0.0 mm
02:11 AM 57.6°F14.2°C 55.3°F12.9°C 92% Calm Calm -- 30.02 in1016.6 mb 0.00 in0.0 mm 0.00 in0.0 mm 0.00 in0.0 mm
02:06 AM 57.8°F14.3°C 55.7°F13.2°C 93% Calm Calm -- 30.02 in1016.6 mb 0.00 in0.0 mm 0.00 in0.0 mm 0.00 in0.0 mm
02:00 AM 57.9°F14.4°C 55.9°F13.3°C 93% Calm Calm -- 30.01 in1016.3 mb 0.00 in0.0 mm 0.00 in0.0 mm 0.00 in0.0 mm
01:55 AM 58.0°F14.4°C 56.0°F13.3°C 93% Calm Calm -- 30.01 in1016.3 mb 0.00 in0.0 mm 0.00 in0.0 mm 0.00 in0.0 mm
01:50 AM 58.1°F14.5°C 56.1°F13.4°C 93% Calm Calm -- 30.01 in1016.3 mb 0.00 in0.0 mm 0.00 in0.0 mm 0.00 in0.0 mm
01:45 AM 58.2°F14.6°C 55.9°F13.3°C 92% Calm Calm -- 30.01 in1016.3 mb 0.00 in0.0 mm 0.00 in0.0 mm 0.00 in0.0 mm
01:40 AM 58.3°F14.6°C 56.2°F13.4°C 93% Calm Calm -- 30.01 in1016.3 mb 0.00 in0.0 mm 0.00 in0.0 mm 0.00 in0.0 mm
01:35 AM 58.4°F14.7°C 56.3°F13.5°C 93% Calm Calm -- 30.01 in1016.3 mb 0.00 in0.0 mm 0.00 in0.0 mm 0.00 in0.0 mm
01:30 AM 58.4°F14.7°C 56.3°F13.5°C 93% Calm Calm -- 30.01 in1016.3 mb 0.00 in0.0 mm 0.00 in0.0 mm 0.00 in0.0 mm
01:25 AM 58.4°F14.7°C 56.3°F13.5°C 93% Calm Calm -- 30.01 in1016.3 mb 0.00 in0.0 mm 0.00 in0.0 mm 0.00 in0.0 mm
01:17 AM 58.3°F14.6°C 55.9°F13.3°C 92% Calm Calm -- 30.01 in1016.3 mb 0.00 in0.0 mm 0.00 in0.0 mm 0.00 in0.0 mm
01:15 AM 58.3°F14.6°C 55.9°F13.3°C 92% Calm Calm -- 30.01 in1016.3 mb 0.00 in0.0 mm 0.00 in0.0 mm 0.00 in0.0 mm
01:10 AM 58.4°F14.7°C 55.7°F13.2°C 91% Calm Calm -- 30.01 in1016.3 mb 0.00 in0.0 mm 0.00 in0.0 mm 0.00 in0.0 mm
01:05 AM 58.5°F14.7°C 55.8°F13.2°C 91% Calm Calm -- 30.01 in1016.3 mb 0.00 in0.0 mm 0.00 in0.0 mm 0.00 in0.0 mm
01:00 AM 58.6°F14.8°C 55.9°F13.3°C 91% Calm Calm -- 30.01 in1016.3 mb 0.00 in0.0 mm 0.00 in0.0 mm 0.00 in0.0 mm
12:55 AM 58.7°F14.8°C 56.0°F13.3°C 91% Calm Calm -- 30.00 in1015.9 mb 0.00 in0.0 mm 0.00 in0.0 mm 0.00 in0.0 mm
12:50 AM 58.8°F14.9°C 55.8°F13.2°C 90% Calm Calm -- 30.00 in1015.9 mb 0.00 in0.0 mm 0.00 in0.0 mm 0.00 in0.0 mm
12:45 AM 59.0°F15.0°C 56.0°F13.3°C 90% Calm Calm -- 30.00 in1015.9 mb 0.00 in0.0 mm 0.00 in0.0 mm 0.00 in0.0 mm
12:40 AM 59.1°F15.1°C 56.1°F13.4°C 90% Calm Calm -- 30.01 in1016.3 mb 0.00 in0.0 mm 0.00 in0.0 mm 0.00 in0.0 mm
12:35 AM 59.3°F15.2°C 56.3°F13.5°C 90% Calm Calm -- 30.01 in1016.3 mb 0.00 in0.0 mm 0.00 in0.0 mm 0.00 in0.0 mm
12:30 AM 59.5°F15.3°C 56.2°F13.4°C 89% Calm Calm -- 30.00 in1015.9 mb 0.00 in0.0 mm 0.00 in0.0 mm 0.00 in0.0 mm
12:25 AM 59.6°F15.3°C 56.4°F13.6°C 89% Calm Calm -- 30.00 in1015.9 mb 0.00 in0.0 mm 0.00 in0.0 mm 0.00 in0.0 mm
12:19 AM 59.8°F15.4°C 56.6°F13.7°C 89% Calm Calm -- 30.00 in1015.9 mb 0.00 in0.0 mm 0.00 in0.0 mm 0.00 in0.0 mm
12:13 AM 60.0°F15.6°C 56.7°F13.7°C 89% Calm Calm -- 30.00 in1015.9 mb 0.00 in0.0 mm 0.00 in0.0 mm 0.00 in0.0 mm
12:08 AM 60.2°F15.7°C 56.9°F13.8°C 89% Calm Calm -- 30.00 in1015.9 mb 0.00 in0.0 mm 0.00 in0.0 mm 0.00 in0.0 mm
12:03 AM 60.4°F15.8°C 57.1°F13.9°C 89% Calm Calm -- 30.00 in1015.9 mb 0.00 in0.0 mm 0.00 in0.0 mm 0.00 in0.0 mm